sensor_id;sensor_type;location;lat;lon;timestamp;P1;durP1;ratioP1;P2;durP2;ratioP2
43527;SDS011;52359;42.658;23.320;2023-09-12T00:01:36;7.38;;;3.97;;
43527;SDS011;52359;42.658;23.320;2023-09-12T00:04:02;9.85;;;3.92;;
43527;SDS011;52359;42.658;23.320;2023-09-12T00:06:28;13.38;;;3.85;;
43527;SDS011;52359;42.658;23.320;2023-09-12T00:08:54;16.90;;;4.57;;
43527;SDS011;52359;42.658;23.320;2023-09-12T00:11:20;11.63;;;4.32;;
43527;SDS011;52359;42.658;23.320;2023-09-12T00:13:50;17.90;;;4.63;;
43527;SDS011;52359;42.658;23.320;2023-09-12T00:16:16;9.43;;;3.97;;
43527;SDS011;52359;42.658;23.320;2023-09-12T00:18:42;12.23;;;3.85;;
43527;SDS011;52359;42.658;23.320;2023-09-12T00:21:08;9.23;;;4.45;;
43527;SDS011;52359;42.658;23.320;2023-09-12T00:23:34;16.38;;;4.30;;
43527;SDS011;52359;42.658;23.320;2023-09-12T00:26:00;44.10;;;6.25;;
43527;SDS011;52359;42.658;23.320;2023-09-12T00:28:26;37.22;;;5.40;;
43527;SDS011;52359;42.658;23.320;2023-09-12T00:30:52;17.02;;;3.63;;
43527;SDS011;52359;42.658;23.320;2023-09-12T00:33:19;18.65;;;3.47;;
43527;SDS011;52359;42.658;23.320;2023-09-12T00:35:45;6.88;;;3.67;;
43527;SDS011;52359;42.658;23.320;2023-09-12T00:38:11;10.65;;;4.05;;
43527;SDS011;52359;42.658;23.320;2023-09-12T00:40:37;12.95;;;4.32;;
43527;SDS011;52359;42.658;23.320;2023-09-12T00:43:03;10.63;;;3.60;;
43527;SDS011;52359;42.658;23.320;2023-09-12T00:45:29;8.15;;;4.13;;
43527;SDS011;52359;42.658;23.320;2023-09-12T00:47:56;11.52;;;3.92;;
43527;SDS011;52359;42.658;23.320;2023-09-12T00:50:23;7.65;;;3.67;;
43527;SDS011;52359;42.658;23.320;2023-09-12T00:52:50;8.00;;;3.72;;
43527;SDS011;52359;42.658;23.320;2023-09-12T00:55:17;10.45;;;4.05;;
43527;SDS011;52359;42.658;23.320;2023-09-12T00:57:43;7.68;;;3.72;;
43527;SDS011;52359;42.658;23.320;2023-09-12T01:00:11;11.85;;;3.28;;
43527;SDS011;52359;42.658;23.320;2023-09-12T01:02:41;12.80;;;4.50;;
43527;SDS011;52359;42.658;23.320;2023-09-12T01:05:07;14.85;;;4.10;;
43527;SDS011;52359;42.658;23.320;2023-09-12T01:07:34;17.05;;;4.40;;
43527;SDS011;52359;42.658;23.320;2023-09-12T01:10:00;7.78;;;3.85;;
43527;SDS011;52359;42.658;23.320;2023-09-12T01:12:27;10.38;;;3.70;;
43527;SDS011;52359;42.658;23.320;2023-09-12T01:14:53;6.13;;;3.83;;
43527;SDS011;52359;42.658;23.320;2023-09-12T01:17:19;11.82;;;4.03;;
43527;SDS011;52359;42.658;23.320;2023-09-12T01:19:45;9.25;;;3.78;;
43527;SDS011;52359;42.658;23.320;2023-09-12T01:29:49;7.88;;;4.20;;
43527;SDS011;52359;42.658;23.320;2023-09-12T01:32:16;7.43;;;4.30;;
43527;SDS011;52359;42.658;23.320;2023-09-12T01:34:43;18.88;;;4.47;;
43527;SDS011;52359;42.658;23.320;2023-09-12T01:37:09;24.42;;;4.85;;
43527;SDS011;52359;42.658;23.320;2023-09-12T01:39:35;15.20;;;4.07;;
43527;SDS011;52359;42.658;23.320;2023-09-12T01:42:02;11.23;;;3.65;;
43527;SDS011;52359;42.658;23.320;2023-09-12T01:44:28;6.70;;;3.83;;
43527;SDS011;52359;42.658;23.320;2023-09-12T01:46:54;10.88;;;3.63;;
43527;SDS011;52359;42.658;23.320;2023-09-12T01:49:23;9.85;;;4.13;;
43527;SDS011;52359;42.658;23.320;2023-09-12T01:51:50;7.57;;;4.00;;
43527;SDS011;52359;42.658;23.320;2023-09-12T01:54:17;14.32;;;3.95;;
43527;SDS011;52359;42.658;23.320;2023-09-12T01:56:44;7.75;;;3.50;;
43527;SDS011;52359;42.658;23.320;2023-09-12T01:59:10;6.78;;;3.83;;
43527;SDS011;52359;42.658;23.320;2023-09-12T02:01:37;20.38;;;4.03;;
43527;SDS011;52359;42.658;23.320;2023-09-12T02:04:03;6.95;;;3.38;;
43527;SDS011;52359;42.658;23.320;2023-09-12T02:06:33;4.93;;;3.22;;
43527;SDS011;52359;42.658;23.320;2023-09-12T02:08:59;9.60;;;3.47;;
43527;SDS011;52359;42.658;23.320;2023-09-12T02:11:26;9.90;;;3.90;;
43527;SDS011;52359;42.658;23.320;2023-09-12T02:13:52;7.07;;;3.67;;
43527;SDS011;52359;42.658;23.320;2023-09-12T02:16:18;7.00;;;3.35;;
43527;SDS011;52359;42.658;23.320;2023-09-12T02:18:44;9.52;;;3.72;;
43527;SDS011;52359;42.658;23.320;2023-09-12T02:21:10;6.18;;;3.38;;
43527;SDS011;52359;42.658;23.320;2023-09-12T02:23:36;10.13;;;3.95;;
43527;SDS011;52359;42.658;23.320;2023-09-12T02:26:02;6.57;;;3.60;;
43527;SDS011;52359;42.658;23.320;2023-09-12T02:28:28;11.07;;;4.15;;
43527;SDS011;52359;42.658;23.320;2023-09-12T02:30:54;11.68;;;3.70;;
43527;SDS011;52359;42.658;23.320;2023-09-12T02:33:20;12.50;;;3.88;;
43527;SDS011;52359;42.658;23.320;2023-09-12T02:35:46;14.30;;;4.40;;
43527;SDS011;52359;42.658;23.320;2023-09-12T02:38:13;6.88;;;3.90;;
43527;SDS011;52359;42.658;23.320;2023-09-12T02:40:39;14.05;;;4.18;;
43527;SDS011;52359;42.658;23.320;2023-09-12T02:43:05;7.57;;;4.05;;
43527;SDS011;52359;42.658;23.320;2023-09-12T02:45:31;6.35;;;3.55;;
43527;SDS011;52359;42.658;23.320;2023-09-12T02:47:57;9.38;;;4.20;;
43527;SDS011;52359;42.658;23.320;2023-09-12T02:50:23;21.15;;;4.15;;
43527;SDS011;52359;42.658;23.320;2023-09-12T02:52:49;8.50;;;4.25;;
43527;SDS011;52359;42.658;23.320;2023-09-12T02:55:15;11.65;;;4.07;;
43527;SDS011;52359;42.658;23.320;2023-09-12T02:57:41;9.55;;;4.35;;
43527;SDS011;52359;42.658;23.320;2023-09-12T03:00:07;14.82;;;4.90;;
43527;SDS011;52359;42.658;23.320;2023-09-12T03:02:34;10.25;;;4.15;;
43527;SDS011;52359;42.658;23.320;2023-09-12T03:05:00;12.10;;;4.47;;
43527;SDS011;52359;42.658;23.320;2023-09-12T03:07:26;11.85;;;4.03;;
43527;SDS011;52359;42.658;23.320;2023-09-12T03:09:52;12.50;;;4.45;;
43527;SDS011;52359;42.658;23.320;2023-09-12T03:12:18;15.00;;;4.57;;
43527;SDS011;52359;42.658;23.320;2023-09-12T03:14:44;18.23;;;5.53;;
43527;SDS011;52359;42.658;23.320;2023-09-12T03:17:11;10.85;;;4.25;;
43527;SDS011;52359;42.658;23.320;2023-09-12T03:19:37;12.38;;;4.72;;
43527;SDS011;52359;42.658;23.320;2023-09-12T03:22:03;16.75;;;4.95;;
43527;SDS011;52359;42.658;23.320;2023-09-12T03:24:29;13.68;;;4.10;;
43527;SDS011;52359;42.658;23.320;2023-09-12T03:26:56;11.90;;;4.30;;
43527;SDS011;52359;42.658;23.320;2023-09-12T03:29:22;19.10;;;3.97;;
43527;SDS011;52359;42.658;23.320;2023-09-12T03:31:48;14.95;;;4.32;;
43527;SDS011;52359;42.658;23.320;2023-09-12T03:34:14;15.35;;;4.82;;
43527;SDS011;52359;42.658;23.320;2023-09-12T03:36:40;8.27;;;4.75;;
43527;SDS011;52359;42.658;23.320;2023-09-12T03:39:06;15.65;;;4.47;;
43527;SDS011;52359;42.658;23.320;2023-09-12T03:41:34;11.20;;;4.75;;
43527;SDS011;52359;42.658;23.320;2023-09-12T03:44:00;11.57;;;4.63;;
43527;SDS011;52359;42.658;23.320;2023-09-12T03:46:26;9.80;;;4.35;;
43527;SDS011;52359;42.658;23.320;2023-09-12T03:48:52;18.05;;;4.75;;
43527;SDS011;52359;42.658;23.320;2023-09-12T03:51:18;10.50;;;4.55;;
43527;SDS011;52359;42.658;23.320;2023-09-12T03:53:44;22.48;;;5.85;;
43527;SDS011;52359;42.658;23.320;2023-09-12T03:56:12;11.68;;;5.60;;
43527;SDS011;52359;42.658;23.320;2023-09-12T03:58:39;16.15;;;6.22;;
43527;SDS011;52359;42.658;23.320;2023-09-12T04:01:05;15.38;;;6.70;;
43527;SDS011;52359;42.658;23.320;2023-09-12T04:03:32;14.52;;;5.28;;
43527;SDS011;52359;42.658;23.320;2023-09-12T04:05:58;21.70;;;5.55;;
43527;SDS011;52359;42.658;23.320;2023-09-12T04:08:24;14.35;;;5.10;;
43527;SDS011;52359;42.658;23.320;2023-09-12T04:10:50;12.27;;;3.97;;
43527;SDS011;52359;42.658;23.320;2023-09-12T04:13:16;9.30;;;4.50;;
43527;SDS011;52359;42.658;23.320;2023-09-12T04:15:42;11.75;;;4.05;;
43527;SDS011;52359;42.658;23.320;2023-09-12T04:18:07;12.43;;;4.38;;
43527;SDS011;52359;42.658;23.320;2023-09-12T04:20:33;22.15;;;5.30;;
43527;SDS011;52359;42.658;23.320;2023-09-12T04:23:02;18.83;;;5.53;;
43527;SDS011;52359;42.658;23.320;2023-09-12T04:25:29;22.85;;;4.25;;
43527;SDS011;52359;42.658;23.320;2023-09-12T04:27:55;14.73;;;4.90;;
43527;SDS011;52359;42.658;23.320;2023-09-12T04:30:21;17.85;;;5.20;;
43527;SDS011;52359;42.658;23.320;2023-09-12T04:32:47;19.27;;;4.85;;
43527;SDS011;52359;42.658;23.320;2023-09-12T04:35:13;18.00;;;4.78;;
43527;SDS011;52359;42.658;23.320;2023-09-12T04:37:39;15.82;;;4.93;;
43527;SDS011;52359;42.658;23.320;2023-09-12T04:40:06;16.67;;;5.05;;
43527;SDS011;52359;42.658;23.320;2023-09-12T04:42:32;20.90;;;5.95;;
43527;SDS011;52359;42.658;23.320;2023-09-12T04:44:58;25.40;;;6.25;;
43527;SDS011;52359;42.658;23.320;2023-09-12T04:47:24;18.63;;;6.00;;
43527;SDS011;52359;42.658;23.320;2023-09-12T04:49:50;33.13;;;6.53;;
43527;SDS011;52359;42.658;23.320;2023-09-12T04:52:16;24.88;;;6.22;;
43527;SDS011;52359;42.658;23.320;2023-09-12T04:54:42;32.22;;;6.22;;
43527;SDS011;52359;42.658;23.320;2023-09-12T04:57:08;21.15;;;5.28;;
43527;SDS011;52359;42.658;23.320;2023-09-12T04:59:34;20.02;;;5.53;;
43527;SDS011;52359;42.658;23.320;2023-09-12T05:02:00;21.30;;;4.93;;
43527;SDS011;52359;42.658;23.320;2023-09-12T05:04:26;19.15;;;5.10;;
43527;SDS011;52359;42.658;23.320;2023-09-12T05:06:53;21.58;;;5.55;;
43527;SDS011;52359;42.658;23.320;2023-09-12T05:09:19;21.05;;;6.07;;
43527;SDS011;52359;42.658;23.320;2023-09-12T05:11:45;17.58;;;6.05;;
43527;SDS011;52359;42.658;23.320;2023-09-12T05:14:11;27.98;;;5.20;;
43527;SDS011;52359;42.658;23.320;2023-09-12T05:16:37;17.50;;;6.63;;
43527;SDS011;52359;42.658;23.320;2023-09-12T05:19:03;38.50;;;7.00;;
43527;SDS011;52359;42.658;23.320;2023-09-12T05:21:29;18.38;;;5.88;;
43527;SDS011;52359;42.658;23.320;2023-09-12T05:23:55;14.88;;;5.38;;
43527;SDS011;52359;42.658;23.320;2023-09-12T05:26:21;12.55;;;5.65;;
43527;SDS011;52359;42.658;23.320;2023-09-12T05:28:47;15.77;;;5.72;;
43527;SDS011;52359;42.658;23.320;2023-09-12T05:31:13;21.10;;;6.68;;
43527;SDS011;52359;42.658;23.320;2023-09-12T05:33:39;23.02;;;6.53;;
43527;SDS011;52359;42.658;23.320;2023-09-12T05:36:05;14.32;;;5.68;;
43527;SDS011;52359;42.658;23.320;2023-09-12T05:38:31;18.65;;;5.82;;
43527;SDS011;52359;42.658;23.320;2023-09-12T05:40:57;14.07;;;6.18;;
43527;SDS011;52359;42.658;23.320;2023-09-12T05:43:23;13.13;;;5.47;;
43527;SDS011;52359;42.658;23.320;2023-09-12T05:45:49;14.15;;;5.43;;
43527;SDS011;52359;42.658;23.320;2023-09-12T05:48:15;13.13;;;5.68;;
43527;SDS011;52359;42.658;23.320;2023-09-12T05:50:41;12.13;;;6.75;;
43527;SDS011;52359;42.658;23.320;2023-09-12T05:53:08;18.50;;;6.90;;
43527;SDS011;52359;42.658;23.320;2023-09-12T05:55:34;23.55;;;6.47;;
43527;SDS011;52359;42.658;23.320;2023-09-12T05:58:00;19.98;;;6.13;;
43527;SDS011;52359;42.658;23.320;2023-09-12T06:00:28;26.23;;;6.43;;
43527;SDS011;52359;42.658;23.320;2023-09-12T06:02:54;15.73;;;6.80;;
43527;SDS011;52359;42.658;23.320;2023-09-12T06:05:20;19.98;;;6.50;;
43527;SDS011;52359;42.658;23.320;2023-09-12T06:07:46;16.70;;;7.05;;
43527;SDS011;52359;42.658;23.320;2023-09-12T06:10:12;15.40;;;6.07;;
43527;SDS011;52359;42.658;23.320;2023-09-12T06:12:38;23.27;;;8.13;;
43527;SDS011;52359;42.658;23.320;2023-09-12T06:15:05;14.55;;;7.07;;
43527;SDS011;52359;42.658;23.320;2023-09-12T06:17:31;16.38;;;6.60;;
43527;SDS011;52359;42.658;23.320;2023-09-12T06:19:57;16.70;;;7.35;;
43527;SDS011;52359;42.658;23.320;2023-09-12T06:22:23;12.57;;;6.63;;
43527;SDS011;52359;42.658;23.320;2023-09-12T06:24:50;17.85;;;7.72;;
43527;SDS011;52359;42.658;23.320;2023-09-12T06:27:16;12.90;;;7.25;;
43527;SDS011;52359;42.658;23.320;2023-09-12T06:29:44;32.97;;;17.98;;
43527;SDS011;52359;42.658;23.320;2023-09-12T06:32:11;23.83;;;8.75;;
43527;SDS011;52359;42.658;23.320;2023-09-12T06:34:37;27.40;;;8.27;;
43527;SDS011;52359;42.658;23.320;2023-09-12T06:37:03;20.80;;;7.57;;
43527;SDS011;52359;42.658;23.320;2023-09-12T06:39:29;24.00;;;6.88;;
43527;SDS011;52359;42.658;23.320;2023-09-12T06:41:55;11.20;;;6.43;;
43527;SDS011;52359;42.658;23.320;2023-09-12T06:44:21;15.82;;;5.75;;
43527;SDS011;52359;42.658;23.320;2023-09-12T06:46:47;18.05;;;6.82;;
43527;SDS011;52359;42.658;23.320;2023-09-12T06:49:13;18.70;;;6.20;;
43527;SDS011;52359;42.658;23.320;2023-09-12T06:51:39;15.68;;;6.05;;
43527;SDS011;52359;42.658;23.320;2023-09-12T06:54:05;9.73;;;6.05;;
43527;SDS011;52359;42.658;23.320;2023-09-12T06:56:31;13.20;;;6.00;;
43527;SDS011;52359;42.658;23.320;2023-09-12T06:59:02;20.45;;;6.10;;
43527;SDS011;52359;42.658;23.320;2023-09-12T07:01:29;22.27;;;6.47;;
43527;SDS011;52359;42.658;23.320;2023-09-12T07:03:55;19.48;;;7.70;;
43527;SDS011;52359;42.658;23.320;2023-09-12T07:06:21;16.02;;;6.80;;
43527;SDS011;52359;42.658;23.320;2023-09-12T07:08:47;15.55;;;5.68;;
43527;SDS011;52359;42.658;23.320;2023-09-12T07:11:13;14.93;;;5.22;;
43527;SDS011;52359;42.658;23.320;2023-09-12T07:13:40;15.05;;;5.65;;
43527;SDS011;52359;42.658;23.320;2023-09-12T07:16:06;13.30;;;5.50;;
43527;SDS011;52359;42.658;23.320;2023-09-12T07:18:32;10.30;;;4.38;;
43527;SDS011;52359;42.658;23.320;2023-09-12T07:21:02;18.52;;;4.63;;
43527;SDS011;52359;42.658;23.320;2023-09-12T07:23:28;14.10;;;4.70;;
43527;SDS011;52359;42.658;23.320;2023-09-12T07:25:54;10.25;;;4.57;;
43527;SDS011;52359;42.658;23.320;2023-09-12T07:28:22;18.58;;;5.68;;
43527;SDS011;52359;42.658;23.320;2023-09-12T07:30:48;10.88;;;4.68;;
43527;SDS011;52359;42.658;23.320;2023-09-12T07:33:15;11.73;;;4.00;;
43527;SDS011;52359;42.658;23.320;2023-09-12T07:35:41;14.93;;;5.07;;
43527;SDS011;52359;42.658;23.320;2023-09-12T07:38:07;17.98;;;4.75;;
43527;SDS011;52359;42.658;23.320;2023-09-12T07:40:33;11.82;;;5.30;;
43527;SDS011;52359;42.658;23.320;2023-09-12T07:42:59;25.48;;;6.45;;
43527;SDS011;52359;42.658;23.320;2023-09-12T07:45:25;19.40;;;6.80;;
43527;SDS011;52359;42.658;23.320;2023-09-12T07:47:52;13.27;;;4.60;;
43527;SDS011;52359;42.658;23.320;2023-09-12T07:50:18;15.07;;;5.00;;
43527;SDS011;52359;42.658;23.320;2023-09-12T07:52:44;19.20;;;5.68;;
43527;SDS011;52359;42.658;23.320;2023-09-12T07:55:11;17.08;;;4.28;;
43527;SDS011;52359;42.658;23.320;2023-09-12T07:57:38;12.15;;;3.38;;
43527;SDS011;52359;42.658;23.320;2023-09-12T08:00:04;15.40;;;3.47;;
43527;SDS011;52359;42.658;23.320;2023-09-12T08:02:34;15.98;;;4.10;;
43527;SDS011;52359;42.658;23.320;2023-09-12T08:05:00;18.85;;;3.90;;
43527;SDS011;52359;42.658;23.320;2023-09-12T08:07:26;15.13;;;3.88;;
43527;SDS011;52359;42.658;23.320;2023-09-12T08:09:53;11.02;;;4.53;;
43527;SDS011;52359;42.658;23.320;2023-09-12T08:12:21;14.70;;;4.65;;
43527;SDS011;52359;42.658;23.320;2023-09-12T08:14:47;11.90;;;4.15;;
43527;SDS011;52359;42.658;23.320;2023-09-12T08:17:13;9.80;;;3.78;;
43527;SDS011;52359;42.658;23.320;2023-09-12T08:19:40;13.35;;;3.88;;
43527;SDS011;52359;42.658;23.320;2023-09-12T08:22:06;17.95;;;4.78;;
43527;SDS011;52359;42.658;23.320;2023-09-12T08:24:33;18.92;;;4.68;;
43527;SDS011;52359;42.658;23.320;2023-09-12T08:26:59;17.77;;;5.03;;
43527;SDS011;52359;42.658;23.320;2023-09-12T08:29:25;14.60;;;4.60;;
43527;SDS011;52359;42.658;23.320;2023-09-12T08:31:51;12.98;;;4.40;;
43527;SDS011;52359;42.658;23.320;2023-09-12T08:34:18;18.80;;;4.22;;
43527;SDS011;52359;42.658;23.320;2023-09-12T08:36:44;19.63;;;4.20;;
43527;SDS011;52359;42.658;23.320;2023-09-12T08:39:11;14.55;;;4.60;;
43527;SDS011;52359;42.658;23.320;2023-09-12T08:41:37;7.15;;;3.85;;
43527;SDS011;52359;42.658;23.320;2023-09-12T08:44:04;20.90;;;4.10;;
43527;SDS011;52359;42.658;23.320;2023-09-12T08:46:33;10.55;;;4.07;;
43527;SDS011;52359;42.658;23.320;2023-09-12T08:48:59;9.73;;;3.53;;
43527;SDS011;52359;42.658;23.320;2023-09-12T08:51:25;12.05;;;4.25;;
43527;SDS011;52359;42.658;23.320;2023-09-12T08:53:51;7.75;;;3.33;;
43527;SDS011;52359;42.658;23.320;2023-09-12T08:56:18;8.95;;;3.63;;
43527;SDS011;52359;42.658;23.320;2023-09-12T08:58:44;14.27;;;4.10;;
43527;SDS011;52359;42.658;23.320;2023-09-12T09:01:12;7.85;;;3.78;;
43527;SDS011;52359;42.658;23.320;2023-09-12T09:03:42;9.85;;;3.60;;
43527;SDS011;52359;42.658;23.320;2023-09-12T09:06:09;7.22;;;3.38;;
43527;SDS011;52359;42.658;23.320;2023-09-12T09:08:36;9.77;;;3.45;;
43527;SDS011;52359;42.658;23.320;2023-09-12T09:11:02;8.23;;;3.72;;
43527;SDS011;52359;42.658;23.320;2023-09-12T09:13:30;10.23;;;3.65;;
43527;SDS011;52359;42.658;23.320;2023-09-12T09:16:12;10.85;;;4.00;;
43527;SDS011;52359;42.658;23.320;2023-09-12T09:21:16;9.50;;;3.60;;
43527;SDS011;52359;42.658;23.320;2023-09-12T09:23:47;9.38;;;2.92;;
43527;SDS011;52359;42.658;23.320;2023-09-12T09:26:13;6.75;;;3.25;;
43527;SDS011;52359;42.658;23.320;2023-09-12T09:28:39;6.75;;;3.30;;
43527;SDS011;52359;42.658;23.320;2023-09-12T09:31:09;15.32;;;3.92;;
43527;SDS011;52359;42.658;23.320;2023-09-12T09:33:36;7.88;;;3.67;;
43527;SDS011;52359;42.658;23.320;2023-09-12T09:36:02;17.70;;;3.95;;
43527;SDS011;52359;42.658;23.320;2023-09-12T09:38:29;9.45;;;3.38;;
43527;SDS011;52359;42.658;23.320;2023-09-12T09:40:56;18.90;;;4.22;;
43527;SDS011;52359;42.658;23.320;2023-09-12T09:43:22;9.48;;;3.15;;
43527;SDS011;52359;42.658;23.320;2023-09-12T09:45:50;6.63;;;3.50;;
43527;SDS011;52359;42.658;23.320;2023-09-12T09:48:22;14.27;;;4.00;;
43527;SDS011;52359;42.658;23.320;2023-09-12T09:50:48;13.05;;;3.47;;
43527;SDS011;52359;42.658;23.320;2023-09-12T09:53:15;11.75;;;2.78;;
43527;SDS011;52359;42.658;23.320;2023-09-12T09:55:41;7.22;;;3.33;;
43527;SDS011;52359;42.658;23.320;2023-09-12T09:58:07;13.30;;;2.55;;
43527;SDS011;52359;42.658;23.320;2023-09-12T10:00:34;11.27;;;3.15;;
43527;SDS011;52359;42.658;23.320;2023-09-12T10:03:01;8.77;;;3.30;;
43527;SDS011;52359;42.658;23.320;2023-09-12T10:05:29;7.65;;;3.60;;
43527;SDS011;52359;42.658;23.320;2023-09-12T10:07:56;4.85;;;2.78;;
43527;SDS011;52359;42.658;23.320;2023-09-12T10:10:24;10.32;;;2.75;;
43527;SDS011;52359;42.658;23.320;2023-09-12T10:12:57;9.27;;;2.97;;
43527;SDS011;52359;42.658;23.320;2023-09-12T10:15:24;11.52;;;3.30;;
43527;SDS011;52359;42.658;23.320;2023-09-12T10:18:02;8.18;;;3.05;;
43527;SDS011;52359;42.658;23.320;2023-09-12T10:20:33;13.63;;;5.70;;
43527;SDS011;52359;42.658;23.320;2023-09-12T10:23:03;11.10;;;3.27;;
43527;SDS011;52359;42.658;23.320;2023-09-12T10:25:34;7.05;;;2.70;;
43527;SDS011;52359;42.658;23.320;2023-09-12T10:28:01;8.15;;;3.20;;
43527;SDS011;52359;42.658;23.320;2023-09-12T10:30:28;8.20;;;2.80;;
43527;SDS011;52359;42.658;23.320;2023-09-12T10:32:55;11.73;;;2.95;;
43527;SDS011;52359;42.658;23.320;2023-09-12T10:35:21;6.97;;;2.88;;
43527;SDS011;52359;42.658;23.320;2023-09-12T10:37:47;10.68;;;3.40;;
43527;SDS011;52359;42.658;23.320;2023-09-12T10:40:14;5.85;;;2.80;;
43527;SDS011;52359;42.658;23.320;2023-09-12T10:42:42;11.60;;;2.70;;
43527;SDS011;52359;42.658;23.320;2023-09-12T10:45:08;10.45;;;2.85;;
43527;SDS011;52359;42.658;23.320;2023-09-12T10:47:35;9.60;;;2.60;;
43527;SDS011;52359;42.658;23.320;2023-09-12T10:50:02;8.00;;;2.60;;
43527;SDS011;52359;42.658;23.320;2023-09-12T10:52:28;7.18;;;2.63;;
43527;SDS011;52359;42.658;23.320;2023-09-12T10:54:55;10.88;;;2.53;;
43527;SDS011;52359;42.658;23.320;2023-09-12T10:57:21;7.32;;;2.78;;
43527;SDS011;52359;42.658;23.320;2023-09-12T11:00:30;13.57;;;3.30;;
43527;SDS011;52359;42.658;23.320;2023-09-12T11:02:37;10.85;;;2.90;;
43527;SDS011;52359;42.658;23.320;2023-09-12T11:05:04;8.75;;;2.63;;
43527;SDS011;52359;42.658;23.320;2023-09-12T11:07:48;8.07;;;2.92;;
43527;SDS011;52359;42.658;23.320;2023-09-12T11:12:42;4.00;;;3.15;;
43527;SDS011;52359;42.658;23.320;2023-09-12T11:15:08;5.88;;;2.65;;
43527;SDS011;52359;42.658;23.320;2023-09-12T11:20:04;6.70;;;2.80;;
43527;SDS011;52359;42.658;23.320;2023-09-12T11:22:35;12.13;;;2.92;;
43527;SDS011;52359;42.658;23.320;2023-09-12T11:25:02;3.53;;;2.60;;
43527;SDS011;52359;42.658;23.320;2023-09-12T11:27:31;7.03;;;2.60;;
43527;SDS011;52359;42.658;23.320;2023-09-12T11:30:07;7.35;;;2.70;;
43527;SDS011;52359;42.658;23.320;2023-09-12T11:32:34;9.23;;;2.78;;
43527;SDS011;52359;42.658;23.320;2023-09-12T11:35:05;10.43;;;3.47;;
43527;SDS011;52359;42.658;23.320;2023-09-12T11:37:32;4.13;;;2.75;;
43527;SDS011;52359;42.658;23.320;2023-09-12T11:39:58;6.25;;;3.20;;
43527;SDS011;52359;42.658;23.320;2023-09-12T11:42:24;4.07;;;2.83;;
43527;SDS011;52359;42.658;23.320;2023-09-12T11:44:50;6.90;;;3.40;;
43527;SDS011;52359;42.658;23.320;2023-09-12T11:47:17;5.80;;;2.90;;
43527;SDS011;52359;42.658;23.320;2023-09-12T11:49:43;3.17;;;2.33;;
43527;SDS011;52359;42.658;23.320;2023-09-12T11:54:37;7.13;;;2.60;;
43527;SDS011;52359;42.658;23.320;2023-09-12T11:57:03;13.88;;;2.97;;
43527;SDS011;52359;42.658;23.320;2023-09-12T11:59:29;13.20;;;3.08;;
43527;SDS011;52359;42.658;23.320;2023-09-12T12:01:55;11.82;;;3.33;;
43527;SDS011;52359;42.658;23.320;2023-09-12T12:04:22;8.82;;;3.05;;
43527;SDS011;52359;42.658;23.320;2023-09-12T12:06:49;8.35;;;3.28;;
43527;SDS011;52359;42.658;23.320;2023-09-12T12:09:16;9.40;;;3.30;;
43527;SDS011;52359;42.658;23.320;2023-09-12T12:11:46;11.45;;;3.30;;
43527;SDS011;52359;42.658;23.320;2023-09-12T12:14:13;6.85;;;3.05;;
43527;SDS011;52359;42.658;23.320;2023-09-12T12:16:40;7.13;;;3.13;;
43527;SDS011;52359;42.658;23.320;2023-09-12T12:19:10;13.77;;;3.90;;
43527;SDS011;52359;42.658;23.320;2023-09-12T12:21:37;7.03;;;2.78;;
43527;SDS011;52359;42.658;23.320;2023-09-12T12:24:03;6.72;;;3.03;;
43527;SDS011;52359;42.658;23.320;2023-09-12T12:26:30;16.80;;;3.90;;
43527;SDS011;52359;42.658;23.320;2023-09-12T12:28:56;6.65;;;3.20;;
43527;SDS011;52359;42.658;23.320;2023-09-12T12:31:22;17.33;;;3.70;;
43527;SDS011;52359;42.658;23.320;2023-09-12T12:33:50;9.93;;;3.10;;
43527;SDS011;52359;42.658;23.320;2023-09-12T12:36:16;6.00;;;3.38;;
43527;SDS011;52359;42.658;23.320;2023-09-12T12:38:42;14.05;;;3.05;;
43527;SDS011;52359;42.658;23.320;2023-09-12T12:41:11;6.72;;;3.00;;
43527;SDS011;52359;42.658;23.320;2023-09-12T12:43:41;6.68;;;2.67;;
43527;SDS011;52359;42.658;23.320;2023-09-12T12:46:10;8.23;;;3.00;;
43527;SDS011;52359;42.658;23.320;2023-09-12T12:48:42;9.80;;;2.70;;
43527;SDS011;52359;42.658;23.320;2023-09-12T12:51:12;9.77;;;2.95;;
43527;SDS011;52359;42.658;23.320;2023-09-12T12:53:41;5.95;;;2.83;;
43527;SDS011;52359;42.658;23.320;2023-09-12T12:56:08;5.80;;;2.78;;
43527;SDS011;52359;42.658;23.320;2023-09-12T12:58:34;8.95;;;3.22;;
43527;SDS011;52359;42.658;23.320;2023-09-12T13:01:00;5.63;;;3.00;;
43527;SDS011;52359;42.658;23.320;2023-09-12T13:03:26;11.30;;;3.60;;
43527;SDS011;52359;42.658;23.320;2023-09-12T13:05:52;16.98;;;3.72;;
43527;SDS011;52359;42.658;23.320;2023-09-12T13:08:18;6.95;;;3.28;;
43527;SDS011;52359;42.658;23.320;2023-09-12T13:10:44;5.18;;;3.25;;
43527;SDS011;52359;42.658;23.320;2023-09-12T13:13:10;9.10;;;3.15;;
43527;SDS011;52359;42.658;23.320;2023-09-12T13:15:36;6.45;;;3.83;;
43527;SDS011;52359;42.658;23.320;2023-09-12T13:18:02;3.97;;;2.88;;
43527;SDS011;52359;42.658;23.320;2023-09-12T13:20:29;9.10;;;3.13;;
43527;SDS011;52359;42.658;23.320;2023-09-12T13:22:55;4.18;;;2.78;;
43527;SDS011;52359;42.658;23.320;2023-09-12T13:25:21;5.78;;;2.75;;
43527;SDS011;52359;42.658;23.320;2023-09-12T13:27:48;9.88;;;3.17;;
43527;SDS011;52359;42.658;23.320;2023-09-12T13:30:14;14.35;;;3.45;;
43527;SDS011;52359;42.658;23.320;2023-09-12T13:32:40;10.20;;;3.30;;
43527;SDS011;52359;42.658;23.320;2023-09-12T13:35:06;6.75;;;2.90;;
43527;SDS011;52359;42.658;23.320;2023-09-12T13:37:33;6.25;;;2.90;;
43527;SDS011;52359;42.658;23.320;2023-09-12T13:39:59;16.17;;;3.20;;
43527;SDS011;52359;42.658;23.320;2023-09-12T13:42:25;12.07;;;3.72;;
43527;SDS011;52359;42.658;23.320;2023-09-12T13:44:55;5.95;;;3.08;;
43527;SDS011;52359;42.658;23.320;2023-09-12T13:47:21;12.07;;;2.97;;
43527;SDS011;52359;42.658;23.320;2023-09-12T13:49:48;5.93;;;2.83;;
43527;SDS011;52359;42.658;23.320;2023-09-12T13:52:16;6.70;;;3.25;;
43527;SDS011;52359;42.658;23.320;2023-09-12T13:54:42;9.50;;;3.30;;
43527;SDS011;52359;42.658;23.320;2023-09-12T13:57:08;12.50;;;3.13;;
43527;SDS011;52359;42.658;23.320;2023-09-12T13:59:34;8.30;;;3.00;;
43527;SDS011;52359;42.658;23.320;2023-09-12T14:02:00;11.88;;;3.17;;
43527;SDS011;52359;42.658;23.320;2023-09-12T14:04:26;9.90;;;3.10;;
43527;SDS011;52359;42.658;23.320;2023-09-12T14:06:52;9.45;;;3.17;;
43527;SDS011;52359;42.658;23.320;2023-09-12T14:09:18;10.63;;;3.25;;
43527;SDS011;52359;42.658;23.320;2023-09-12T14:11:44;8.10;;;3.20;;
43527;SDS011;52359;42.658;23.320;2023-09-12T14:14:12;5.28;;;2.92;;
43527;SDS011;52359;42.658;23.320;2023-09-12T14:16:38;14.15;;;3.35;;
43527;SDS011;52359;42.658;23.320;2023-09-12T14:19:04;9.70;;;3.05;;
43527;SDS011;52359;42.658;23.320;2023-09-12T14:21:30;9.18;;;2.58;;
43527;SDS011;52359;42.658;23.320;2023-09-12T14:23:57;18.23;;;3.78;;
43527;SDS011;52359;42.658;23.320;2023-09-12T14:26:23;27.95;;;4.05;;
43527;SDS011;52359;42.658;23.320;2023-09-12T14:28:49;9.93;;;3.53;;
43527;SDS011;52359;42.658;23.320;2023-09-12T14:31:15;16.80;;;3.38;;
43527;SDS011;52359;42.658;23.320;2023-09-12T14:33:42;26.50;;;3.25;;
43527;SDS011;52359;42.658;23.320;2023-09-12T14:36:08;15.82;;;2.85;;
43527;SDS011;52359;42.658;23.320;2023-09-12T14:38:34;9.55;;;3.42;;
43527;SDS011;52359;42.658;23.320;2023-09-12T14:41:00;11.82;;;3.22;;